sensor_id;sensor_type;location;lat;lon;timestamp;P1;durP1;ratioP1;P2;durP2;ratioP2
20393;SDS011;10356;50.544;9.642;2024-02-21T00:01:14;21.23;;;5.83;;
20393;SDS011;10356;50.544;9.642;2024-02-21T00:03:42;20.07;;;5.60;;
20393;SDS011;10356;50.544;9.642;2024-02-21T00:06:08;18.37;;;5.33;;
20393;SDS011;10356;50.544;9.642;2024-02-21T00:08:35;17.90;;;5.70;;
20393;SDS011;10356;50.544;9.642;2024-02-21T00:11:01;18.60;;;5.77;;
20393;SDS011;10356;50.544;9.642;2024-02-21T00:13:28;14.57;;;4.50;;
20393;SDS011;10356;50.544;9.642;2024-02-21T00:15:55;20.07;;;6.00;;
20393;SDS011;10356;50.544;9.642;2024-02-21T00:18:21;20.63;;;5.07;;
20393;SDS011;10356;50.544;9.642;2024-02-21T00:20:49;14.33;;;5.00;;
20393;SDS011;10356;50.544;9.642;2024-02-21T00:23:16;17.53;;;5.47;;
20393;SDS011;10356;50.544;9.642;2024-02-21T00:25:42;16.10;;;4.97;;
20393;SDS011;10356;50.544;9.642;2024-02-21T00:28:09;18.80;;;5.00;;
20393;SDS011;10356;50.544;9.642;2024-02-21T00:30:36;17.23;;;5.77;;
20393;SDS011;10356;50.544;9.642;2024-02-21T00:33:03;18.07;;;6.17;;
20393;SDS011;10356;50.544;9.642;2024-02-21T00:35:30;14.80;;;5.17;;
20393;SDS011;10356;50.544;9.642;2024-02-21T00:37:58;18.80;;;5.23;;
20393;SDS011;10356;50.544;9.642;2024-02-21T00:40:24;19.30;;;5.13;;
20393;SDS011;10356;50.544;9.642;2024-02-21T00:42:51;20.27;;;6.27;;
20393;SDS011;10356;50.544;9.642;2024-02-21T00:45:17;16.23;;;5.93;;
20393;SDS011;10356;50.544;9.642;2024-02-21T00:47:44;20.00;;;5.83;;
20393;SDS011;10356;50.544;9.642;2024-02-21T00:50:11;17.07;;;4.60;;
20393;SDS011;10356;50.544;9.642;2024-02-21T00:52:37;15.77;;;5.60;;
20393;SDS011;10356;50.544;9.642;2024-02-21T00:55:05;16.83;;;5.13;;
20393;SDS011;10356;50.544;9.642;2024-02-21T00:57:33;16.57;;;5.23;;
20393;SDS011;10356;50.544;9.642;2024-02-21T00:59:59;15.17;;;5.60;;
20393;SDS011;10356;50.544;9.642;2024-02-21T01:02:25;16.33;;;5.60;;
20393;SDS011;10356;50.544;9.642;2024-02-21T01:04:52;16.40;;;6.20;;
20393;SDS011;10356;50.544;9.642;2024-02-21T01:07:18;15.10;;;4.90;;
20393;SDS011;10356;50.544;9.642;2024-02-21T01:09:45;14.10;;;5.43;;
20393;SDS011;10356;50.544;9.642;2024-02-21T01:12:13;13.57;;;5.20;;
20393;SDS011;10356;50.544;9.642;2024-02-21T01:14:39;15.00;;;5.77;;
20393;SDS011;10356;50.544;9.642;2024-02-21T01:17:06;16.80;;;5.80;;
20393;SDS011;10356;50.544;9.642;2024-02-21T01:19:32;16.90;;;5.00;;
20393;SDS011;10356;50.544;9.642;2024-02-21T01:21:59;19.13;;;5.50;;
20393;SDS011;10356;50.544;9.642;2024-02-21T01:24:25;20.33;;;5.43;;
20393;SDS011;10356;50.544;9.642;2024-02-21T01:26:51;12.33;;;5.43;;
20393;SDS011;10356;50.544;9.642;2024-02-21T01:29:19;14.97;;;4.97;;
20393;SDS011;10356;50.544;9.642;2024-02-21T01:31:46;15.77;;;5.27;;
20393;SDS011;10356;50.544;9.642;2024-02-21T01:34:12;15.50;;;5.30;;
20393;SDS011;10356;50.544;9.642;2024-02-21T01:36:39;16.67;;;6.10;;
20393;SDS011;10356;50.544;9.642;2024-02-21T01:39:06;14.37;;;5.33;;
20393;SDS011;10356;50.544;9.642;2024-02-21T01:41:33;16.27;;;5.13;;
20393;SDS011;10356;50.544;9.642;2024-02-21T01:43:59;15.17;;;5.93;;
20393;SDS011;10356;50.544;9.642;2024-02-21T01:46:27;12.37;;;5.00;;
20393;SDS011;10356;50.544;9.642;2024-02-21T01:48:55;16.70;;;5.90;;
20393;SDS011;10356;50.544;9.642;2024-02-21T01:51:22;14.80;;;5.33;;
20393;SDS011;10356;50.544;9.642;2024-02-21T01:53:49;15.10;;;6.20;;
20393;SDS011;10356;50.544;9.642;2024-02-21T01:56:17;18.37;;;5.83;;
20393;SDS011;10356;50.544;9.642;2024-02-21T01:58:44;15.17;;;5.47;;
20393;SDS011;10356;50.544;9.642;2024-02-21T02:01:13;17.47;;;5.97;;
20393;SDS011;10356;50.544;9.642;2024-02-21T02:03:42;18.27;;;5.67;;
20393;SDS011;10356;50.544;9.642;2024-02-21T02:06:10;15.60;;;5.83;;
20393;SDS011;10356;50.544;9.642;2024-02-21T02:08:37;17.53;;;6.17;;
20393;SDS011;10356;50.544;9.642;2024-02-21T02:11:04;15.23;;;6.00;;
20393;SDS011;10356;50.544;9.642;2024-02-21T02:13:31;14.43;;;6.63;;
20393;SDS011;10356;50.544;9.642;2024-02-21T02:15:58;19.93;;;6.97;;
20393;SDS011;10356;50.544;9.642;2024-02-21T02:18:25;17.70;;;6.73;;
20393;SDS011;10356;50.544;9.642;2024-02-21T02:20:53;18.73;;;5.93;;
20393;SDS011;10356;50.544;9.642;2024-02-21T02:23:23;17.57;;;7.30;;
20393;SDS011;10356;50.544;9.642;2024-02-21T02:25:50;17.67;;;6.10;;
20393;SDS011;10356;50.544;9.642;2024-02-21T02:28:17;16.00;;;5.97;;
20393;SDS011;10356;50.544;9.642;2024-02-21T02:30:44;24.03;;;6.50;;
20393;SDS011;10356;50.544;9.642;2024-02-21T02:33:11;18.77;;;6.23;;
20393;SDS011;10356;50.544;9.642;2024-02-21T02:35:37;17.40;;;6.07;;
20393;SDS011;10356;50.544;9.642;2024-02-21T02:38:04;17.03;;;6.90;;
20393;SDS011;10356;50.544;9.642;2024-02-21T02:40:33;23.57;;;6.87;;
20393;SDS011;10356;50.544;9.642;2024-02-21T02:42:59;19.40;;;6.37;;
20393;SDS011;10356;50.544;9.642;2024-02-21T02:45:26;20.27;;;6.87;;
20393;SDS011;10356;50.544;9.642;2024-02-21T02:47:53;18.83;;;6.73;;
20393;SDS011;10356;50.544;9.642;2024-02-21T02:50:20;17.60;;;6.47;;
20393;SDS011;10356;50.544;9.642;2024-02-21T02:52:47;15.90;;;5.90;;
20393;SDS011;10356;50.544;9.642;2024-02-21T02:55:13;22.03;;;7.37;;
20393;SDS011;10356;50.544;9.642;2024-02-21T02:57:41;20.83;;;7.47;;
20393;SDS011;10356;50.544;9.642;2024-02-21T03:00:08;23.13;;;7.37;;
20393;SDS011;10356;50.544;9.642;2024-02-21T03:02:37;14.87;;;6.90;;
20393;SDS011;10356;50.544;9.642;2024-02-21T03:05:11;19.23;;;6.37;;
20393;SDS011;10356;50.544;9.642;2024-02-21T03:07:38;14.67;;;6.40;;
20393;SDS011;10356;50.544;9.642;2024-02-21T03:10:05;20.37;;;7.50;;
20393;SDS011;10356;50.544;9.642;2024-02-21T03:12:32;21.10;;;8.30;;
20393;SDS011;10356;50.544;9.642;2024-02-21T03:15:00;19.57;;;7.30;;
20393;SDS011;10356;50.544;9.642;2024-02-21T03:17:26;15.50;;;6.77;;
20393;SDS011;10356;50.544;9.642;2024-02-21T03:19:53;20.83;;;7.50;;
20393;SDS011;10356;50.544;9.642;2024-02-21T03:22:20;20.53;;;8.87;;
20393;SDS011;10356;50.544;9.642;2024-02-21T03:24:47;17.33;;;7.83;;
20393;SDS011;10356;50.544;9.642;2024-02-21T03:27:13;18.00;;;8.00;;
20393;SDS011;10356;50.544;9.642;2024-02-21T03:29:40;18.20;;;8.07;;
20393;SDS011;10356;50.544;9.642;2024-02-21T03:32:08;17.93;;;7.60;;
20393;SDS011;10356;50.544;9.642;2024-02-21T03:34:34;17.97;;;8.50;;
20393;SDS011;10356;50.544;9.642;2024-02-21T03:37:01;18.33;;;8.67;;
20393;SDS011;10356;50.544;9.642;2024-02-21T03:39:30;15.37;;;7.63;;
20393;SDS011;10356;50.544;9.642;2024-02-21T03:41:57;18.37;;;8.63;;
20393;SDS011;10356;50.544;9.642;2024-02-21T03:44:25;22.80;;;9.33;;
20393;SDS011;10356;50.544;9.642;2024-02-21T03:46:52;20.90;;;8.37;;
20393;SDS011;10356;50.544;9.642;2024-02-21T03:49:19;19.43;;;8.30;;
20393;SDS011;10356;50.544;9.642;2024-02-21T03:51:46;20.87;;;8.97;;
20393;SDS011;10356;50.544;9.642;2024-02-21T03:54:12;18.87;;;8.97;;
20393;SDS011;10356;50.544;9.642;2024-02-21T03:56:39;22.87;;;9.57;;
20393;SDS011;10356;50.544;9.642;2024-02-21T03:59:06;22.57;;;9.00;;
20393;SDS011;10356;50.544;9.642;2024-02-21T04:01:32;23.73;;;9.13;;
20393;SDS011;10356;50.544;9.642;2024-02-21T04:03:59;22.80;;;10.27;;
20393;SDS011;10356;50.544;9.642;2024-02-21T04:06:27;21.20;;;9.80;;
20393;SDS011;10356;50.544;9.642;2024-02-21T04:08:53;20.87;;;10.10;;
20393;SDS011;10356;50.544;9.642;2024-02-21T04:11:20;22.90;;;10.13;;
20393;SDS011;10356;50.544;9.642;2024-02-21T04:13:46;21.73;;;10.60;;
20393;SDS011;10356;50.544;9.642;2024-02-21T04:16:15;22.50;;;10.40;;
20393;SDS011;10356;50.544;9.642;2024-02-21T04:18:41;23.77;;;10.03;;
20393;SDS011;10356;50.544;9.642;2024-02-21T04:21:09;26.57;;;10.77;;
20393;SDS011;10356;50.544;9.642;2024-02-21T04:23:37;23.93;;;10.43;;
20393;SDS011;10356;50.544;9.642;2024-02-21T04:26:03;23.40;;;10.80;;
20393;SDS011;10356;50.544;9.642;2024-02-21T04:28:29;22.90;;;10.27;;
20393;SDS011;10356;50.544;9.642;2024-02-21T04:30:56;23.83;;;10.80;;
20393;SDS011;10356;50.544;9.642;2024-02-21T04:33:22;22.53;;;10.90;;
20393;SDS011;10356;50.544;9.642;2024-02-21T04:35:49;20.57;;;10.20;;
20393;SDS011;10356;50.544;9.642;2024-02-21T04:38:16;21.70;;;11.07;;
20393;SDS011;10356;50.544;9.642;2024-02-21T04:40:44;27.80;;;11.43;;
20393;SDS011;10356;50.544;9.642;2024-02-21T04:43:11;22.20;;;10.13;;
20393;SDS011;10356;50.544;9.642;2024-02-21T04:45:37;24.80;;;10.57;;
20393;SDS011;10356;50.544;9.642;2024-02-21T04:48:04;25.83;;;11.47;;
20393;SDS011;10356;50.544;9.642;2024-02-21T04:50:31;20.07;;;10.30;;
20393;SDS011;10356;50.544;9.642;2024-02-21T04:52:57;22.27;;;9.40;;
20393;SDS011;10356;50.544;9.642;2024-02-21T04:55:24;20.70;;;9.87;;
20393;SDS011;10356;50.544;9.642;2024-02-21T04:57:51;22.10;;;10.53;;
20393;SDS011;10356;50.544;9.642;2024-02-21T05:00:18;21.60;;;11.10;;
20393;SDS011;10356;50.544;9.642;2024-02-21T05:02:45;23.73;;;9.70;;
20393;SDS011;10356;50.544;9.642;2024-02-21T05:05:11;21.00;;;9.63;;
20393;SDS011;10356;50.544;9.642;2024-02-21T05:07:40;21.20;;;9.47;;
20393;SDS011;10356;50.544;9.642;2024-02-21T05:10:07;23.70;;;9.60;;
20393;SDS011;10356;50.544;9.642;2024-02-21T05:12:34;23.13;;;9.53;;
20393;SDS011;10356;50.544;9.642;2024-02-21T05:15:02;23.10;;;9.00;;
20393;SDS011;10356;50.544;9.642;2024-02-21T05:17:29;23.93;;;9.63;;
20393;SDS011;10356;50.544;9.642;2024-02-21T05:19:55;19.73;;;8.80;;
20393;SDS011;10356;50.544;9.642;2024-02-21T05:22:21;26.13;;;9.43;;
20393;SDS011;10356;50.544;9.642;2024-02-21T05:24:48;18.43;;;9.00;;
20393;SDS011;10356;50.544;9.642;2024-02-21T05:27:14;19.27;;;9.23;;
20393;SDS011;10356;50.544;9.642;2024-02-21T05:29:41;20.13;;;10.30;;
20393;SDS011;10356;50.544;9.642;2024-02-21T05:32:09;19.97;;;9.27;;
20393;SDS011;10356;50.544;9.642;2024-02-21T05:34:35;17.37;;;8.53;;
20393;SDS011;10356;50.544;9.642;2024-02-21T05:37:02;21.20;;;9.20;;
20393;SDS011;10356;50.544;9.642;2024-02-21T05:39:28;20.00;;;8.20;;
20393;SDS011;10356;50.544;9.642;2024-02-21T05:41:55;20.03;;;8.90;;
20393;SDS011;10356;50.544;9.642;2024-02-21T05:44:21;18.73;;;7.83;;
20393;SDS011;10356;50.544;9.642;2024-02-21T05:46:48;18.33;;;9.07;;
20393;SDS011;10356;50.544;9.642;2024-02-21T05:49:16;21.50;;;9.17;;
20393;SDS011;10356;50.544;9.642;2024-02-21T05:51:42;24.03;;;8.93;;
20393;SDS011;10356;50.544;9.642;2024-02-21T05:54:08;20.90;;;9.13;;
20393;SDS011;10356;50.544;9.642;2024-02-21T05:56:35;19.13;;;9.07;;
20393;SDS011;10356;50.544;9.642;2024-02-21T05:59:01;19.90;;;8.73;;
20393;SDS011;10356;50.544;9.642;2024-02-21T06:01:28;20.30;;;9.30;;
20393;SDS011;10356;50.544;9.642;2024-02-21T06:03:54;23.73;;;9.67;;
20393;SDS011;10356;50.544;9.642;2024-02-21T06:06:22;23.67;;;10.97;;
20393;SDS011;10356;50.544;9.642;2024-02-21T06:08:49;20.73;;;8.40;;
20393;SDS011;10356;50.544;9.642;2024-02-21T06:11:15;20.67;;;8.27;;
20393;SDS011;10356;50.544;9.642;2024-02-21T06:13:41;22.20;;;8.47;;
20393;SDS011;10356;50.544;9.642;2024-02-21T06:16:08;17.07;;;9.10;;
20393;SDS011;10356;50.544;9.642;2024-02-21T06:18:35;18.17;;;8.30;;
20393;SDS011;10356;50.544;9.642;2024-02-21T06:21:03;21.03;;;9.47;;
20393;SDS011;10356;50.544;9.642;2024-02-21T06:23:31;27.33;;;9.90;;
20393;SDS011;10356;50.544;9.642;2024-02-21T06:25:57;24.03;;;9.07;;
20393;SDS011;10356;50.544;9.642;2024-02-21T06:28:24;23.80;;;9.57;;
20393;SDS011;10356;50.544;9.642;2024-02-21T06:30:50;19.97;;;9.03;;
20393;SDS011;10356;50.544;9.642;2024-02-21T06:33:17;22.00;;;9.43;;
20393;SDS011;10356;50.544;9.642;2024-02-21T06:35:43;20.27;;;9.07;;
20393;SDS011;10356;50.544;9.642;2024-02-21T06:38:12;18.87;;;9.10;;
20393;SDS011;10356;50.544;9.642;2024-02-21T06:40:40;23.63;;;9.17;;
20393;SDS011;10356;50.544;9.642;2024-02-21T06:43:06;23.27;;;9.27;;
20393;SDS011;10356;50.544;9.642;2024-02-21T06:45:33;23.33;;;9.57;;
20393;SDS011;10356;50.544;9.642;2024-02-21T06:47:59;18.80;;;9.13;;
20393;SDS011;10356;50.544;9.642;2024-02-21T06:50:26;26.20;;;9.80;;
20393;SDS011;10356;50.544;9.642;2024-02-21T06:52:52;19.00;;;8.93;;
20393;SDS011;10356;50.544;9.642;2024-02-21T06:55:19;23.20;;;9.07;;
20393;SDS011;10356;50.544;9.642;2024-02-21T06:57:47;19.50;;;9.00;;
20393;SDS011;10356;50.544;9.642;2024-02-21T07:00:14;22.10;;;8.90;;
20393;SDS011;10356;50.544;9.642;2024-02-21T07:02:42;18.23;;;9.03;;
20393;SDS011;10356;50.544;9.642;2024-02-21T07:05:08;23.07;;;9.43;;
20393;SDS011;10356;50.544;9.642;2024-02-21T07:07:35;23.37;;;9.53;;
20393;SDS011;10356;50.544;9.642;2024-02-21T07:10:01;21.47;;;8.93;;
20393;SDS011;10356;50.544;9.642;2024-02-21T07:12:29;24.67;;;8.77;;
20393;SDS011;10356;50.544;9.642;2024-02-21T07:14:57;21.17;;;8.70;;
20393;SDS011;10356;50.544;9.642;2024-02-21T07:17:24;26.17;;;9.17;;
20393;SDS011;10356;50.544;9.642;2024-02-21T07:19:50;23.27;;;10.03;;
20393;SDS011;10356;50.544;9.642;2024-02-21T07:22:17;20.90;;;9.93;;
20393;SDS011;10356;50.544;9.642;2024-02-21T07:24:43;19.87;;;9.47;;
20393;SDS011;10356;50.544;9.642;2024-02-21T07:27:09;24.43;;;10.40;;
20393;SDS011;10356;50.544;9.642;2024-02-21T07:29:36;21.73;;;8.77;;
20393;SDS011;10356;50.544;9.642;2024-02-21T07:32:04;20.57;;;9.17;;
20393;SDS011;10356;50.544;9.642;2024-02-21T07:34:31;18.73;;;8.80;;
20393;SDS011;10356;50.544;9.642;2024-02-21T07:36:57;20.50;;;9.80;;
20393;SDS011;10356;50.544;9.642;2024-02-21T07:39:24;26.77;;;9.83;;
20393;SDS011;10356;50.544;9.642;2024-02-21T07:41:50;21.03;;;8.50;;
20393;SDS011;10356;50.544;9.642;2024-02-21T07:44:16;22.20;;;8.83;;
20393;SDS011;10356;50.544;9.642;2024-02-21T07:46:43;20.43;;;7.93;;
20393;SDS011;10356;50.544;9.642;2024-02-21T07:49:11;17.23;;;8.03;;
20393;SDS011;10356;50.544;9.642;2024-02-21T07:51:37;18.07;;;8.43;;
20393;SDS011;10356;50.544;9.642;2024-02-21T07:54:04;19.97;;;8.30;;
20393;SDS011;10356;50.544;9.642;2024-02-21T07:56:30;20.60;;;9.47;;
20393;SDS011;10356;50.544;9.642;2024-02-21T07:58:57;18.60;;;8.20;;
20393;SDS011;10356;50.544;9.642;2024-02-21T08:01:24;15.97;;;7.23;;
20393;SDS011;10356;50.544;9.642;2024-02-21T08:03:50;16.50;;;8.20;;
20393;SDS011;10356;50.544;9.642;2024-02-21T08:06:18;15.67;;;8.23;;
20393;SDS011;10356;50.544;9.642;2024-02-21T08:08:44;18.97;;;8.37;;
20393;SDS011;10356;50.544;9.642;2024-02-21T08:11:11;15.40;;;7.33;;
20393;SDS011;10356;50.544;9.642;2024-02-21T08:13:38;14.70;;;7.23;;
20393;SDS011;10356;50.544;9.642;2024-02-21T08:16:04;13.80;;;7.50;;
20393;SDS011;10356;50.544;9.642;2024-02-21T08:18:31;17.00;;;6.87;;
20393;SDS011;10356;50.544;9.642;2024-02-21T08:21:01;16.17;;;6.50;;
20393;SDS011;10356;50.544;9.642;2024-02-21T08:23:29;20.60;;;7.30;;
20393;SDS011;10356;50.544;9.642;2024-02-21T08:25:56;13.37;;;6.23;;
20393;SDS011;10356;50.544;9.642;2024-02-21T08:28:22;12.20;;;6.43;;
20393;SDS011;10356;50.544;9.642;2024-02-21T08:30:48;10.20;;;5.93;;
20393;SDS011;10356;50.544;9.642;2024-02-21T08:33:15;12.27;;;6.30;;
20393;SDS011;10356;50.544;9.642;2024-02-21T08:35:42;11.33;;;5.10;;
20393;SDS011;10356;50.544;9.642;2024-02-21T08:38:09;14.57;;;6.00;;
20393;SDS011;10356;50.544;9.642;2024-02-21T08:40:37;10.80;;;5.30;;
20393;SDS011;10356;50.544;9.642;2024-02-21T08:43:03;14.57;;;5.87;;
20393;SDS011;10356;50.544;9.642;2024-02-21T08:45:30;11.03;;;5.67;;
20393;SDS011;10356;50.544;9.642;2024-02-21T08:47:56;13.23;;;5.93;;
20393;SDS011;10356;50.544;9.642;2024-02-21T08:50:23;16.07;;;6.77;;
20393;SDS011;10356;50.544;9.642;2024-02-21T08:52:49;15.83;;;6.07;;
20393;SDS011;10356;50.544;9.642;2024-02-21T08:55:15;13.93;;;6.30;;
20393;SDS011;10356;50.544;9.642;2024-02-21T08:57:43;9.63;;;5.77;;
20393;SDS011;10356;50.544;9.642;2024-02-21T09:00:10;13.90;;;6.40;;
20393;SDS011;10356;50.544;9.642;2024-02-21T09:02:39;14.67;;;6.37;;
20393;SDS011;10356;50.544;9.642;2024-02-21T09:05:08;14.47;;;7.00;;
20393;SDS011;10356;50.544;9.642;2024-02-21T09:07:34;14.47;;;6.27;;
20393;SDS011;10356;50.544;9.642;2024-02-21T09:10:01;15.53;;;6.27;;
20393;SDS011;10356;50.544;9.642;2024-02-21T09:12:27;13.47;;;6.30;;
20393;SDS011;10356;50.544;9.642;2024-02-21T09:14:56;15.00;;;7.13;;
20393;SDS011;10356;50.544;9.642;2024-02-21T09:17:22;12.37;;;6.90;;
20393;SDS011;10356;50.544;9.642;2024-02-21T09:19:50;16.10;;;8.23;;
20393;SDS011;10356;50.544;9.642;2024-02-21T09:22:16;15.33;;;7.07;;
20393;SDS011;10356;50.544;9.642;2024-02-21T09:24:43;14.93;;;7.50;;
20393;SDS011;10356;50.544;9.642;2024-02-21T09:27:10;15.57;;;6.90;;
20393;SDS011;10356;50.544;9.642;2024-02-21T09:29:36;19.73;;;7.00;;
20393;SDS011;10356;50.544;9.642;2024-02-21T09:32:06;16.63;;;7.37;;
20393;SDS011;10356;50.544;9.642;2024-02-21T09:34:32;12.33;;;7.23;;
20393;SDS011;10356;50.544;9.642;2024-02-21T09:36:58;13.73;;;6.93;;
20393;SDS011;10356;50.544;9.642;2024-02-21T09:39:25;12.10;;;6.47;;
20393;SDS011;10356;50.544;9.642;2024-02-21T09:41:53;12.80;;;6.20;;
20393;SDS011;10356;50.544;9.642;2024-02-21T09:44:23;16.17;;;7.53;;
20393;SDS011;10356;50.544;9.642;2024-02-21T09:46:55;13.87;;;6.47;;
20393;SDS011;10356;50.544;9.642;2024-02-21T09:49:30;13.27;;;6.00;;
20393;SDS011;10356;50.544;9.642;2024-02-21T09:51:59;13.43;;;5.93;;
20393;SDS011;10356;50.544;9.642;2024-02-21T09:54:27;12.30;;;5.90;;
20393;SDS011;10356;50.544;9.642;2024-02-21T09:56:55;10.40;;;4.63;;
20393;SDS011;10356;50.544;9.642;2024-02-21T09:59:21;8.63;;;4.50;;
20393;SDS011;10356;50.544;9.642;2024-02-21T10:01:49;8.17;;;4.80;;
20393;SDS011;10356;50.544;9.642;2024-02-21T10:04:16;10.87;;;4.80;;
20393;SDS011;10356;50.544;9.642;2024-02-21T10:06:45;11.83;;;4.87;;
20393;SDS011;10356;50.544;9.642;2024-02-21T10:09:19;12.53;;;4.90;;
20393;SDS011;10356;50.544;9.642;2024-02-21T10:11:48;11.73;;;4.63;;
20393;SDS011;10356;50.544;9.642;2024-02-21T10:14:14;11.87;;;5.10;;
20393;SDS011;10356;50.544;9.642;2024-02-21T10:16:42;8.97;;;3.90;;
20393;SDS011;10356;50.544;9.642;2024-02-21T10:19:15;16.27;;;6.07;;
20393;SDS011;10356;50.544;9.642;2024-02-21T10:21:42;9.77;;;4.77;;
20393;SDS011;10356;50.544;9.642;2024-02-21T10:24:11;7.67;;;4.13;;
20393;SDS011;10356;50.544;9.642;2024-02-21T10:26:38;12.40;;;4.60;;
20393;SDS011;10356;50.544;9.642;2024-02-21T10:29:05;12.47;;;4.70;;
20393;SDS011;10356;50.544;9.642;2024-02-21T10:31:31;13.13;;;4.37;;
20393;SDS011;10356;50.544;9.642;2024-02-21T10:33:58;11.55;;;3.78;;
20393;SDS011;10356;50.544;9.642;2024-02-21T10:36:28;11.67;;;3.83;;
20393;SDS011;10356;50.544;9.642;2024-02-21T10:38:55;11.03;;;4.27;;
20393;SDS011;10356;50.544;9.642;2024-02-21T10:41:23;11.70;;;3.60;;
20393;SDS011;10356;50.544;9.642;2024-02-21T10:43:52;9.80;;;3.53;;
20393;SDS011;10356;50.544;9.642;2024-02-21T10:46:20;10.50;;;3.80;;
20393;SDS011;10356;50.544;9.642;2024-02-21T10:48:48;12.13;;;4.20;;
20393;SDS011;10356;50.544;9.642;2024-02-21T10:51:20;9.07;;;3.73;;
20393;SDS011;10356;50.544;9.642;2024-02-21T10:53:55;8.02;;;3.40;;
20393;SDS011;10356;50.544;9.642;2024-02-21T10:56:29;12.63;;;7.10;;
20393;SDS011;10356;50.544;9.642;2024-02-21T10:59:04;12.83;;;5.87;;
20393;SDS011;10356;50.544;9.642;2024-02-21T11:01:31;11.77;;;4.07;;
20393;SDS011;10356;50.544;9.642;2024-02-21T11:04:01;12.40;;;3.97;;
20393;SDS011;10356;50.544;9.642;2024-02-21T11:06:30;14.02;;;4.32;;
20393;SDS011;10356;50.544;9.642;2024-02-21T11:09:00;12.93;;;3.63;;
20393;SDS011;10356;50.544;9.642;2024-02-21T11:11:33;12.35;;;4.30;;
20393;SDS011;10356;50.544;9.642;2024-02-21T11:14:06;9.38;;;3.47;;
20393;SDS011;10356;50.544;9.642;2024-02-21T11:16:37;9.00;;;3.58;;
20393;SDS011;10356;50.544;9.642;2024-02-21T11:19:06;12.53;;;3.70;;
20393;SDS011;10356;50.544;9.642;2024-02-21T11:21:34;10.05;;;3.95;;
20393;SDS011;10356;50.544;9.642;2024-02-21T11:24:01;9.57;;;4.30;;
20393;SDS011;10356;50.544;9.642;2024-02-21T11:26:28;13.38;;;4.57;;
20393;SDS011;10356;50.544;9.642;2024-02-21T11:28:57;11.20;;;3.87;;
20393;SDS011;10356;50.544;9.642;2024-02-21T11:31:25;10.37;;;4.40;;
20393;SDS011;10356;50.544;9.642;2024-02-21T11:33:53;9.83;;;3.73;;
20393;SDS011;10356;50.544;9.642;2024-02-21T11:36:24;7.30;;;3.70;;
20393;SDS011;10356;50.544;9.642;2024-02-21T11:38:51;10.03;;;3.97;;
20393;SDS011;10356;50.544;9.642;2024-02-21T11:41:18;8.07;;;3.43;;
20393;SDS011;10356;50.544;9.642;2024-02-21T11:43:45;9.25;;;3.83;;
20393;SDS011;10356;50.544;9.642;2024-02-21T11:46:14;10.13;;;3.55;;
20393;SDS011;10356;50.544;9.642;2024-02-21T11:48:40;9.30;;;4.20;;
20393;SDS011;10356;50.544;9.642;2024-02-21T11:51:09;8.73;;;3.30;;
20393;SDS011;10356;50.544;9.642;2024-02-21T11:53:36;7.57;;;3.13;;
20393;SDS011;10356;50.544;9.642;2024-02-21T11:56:03;12.87;;;3.37;;
20393;SDS011;10356;50.544;9.642;2024-02-21T11:58:29;10.82;;;3.40;;
20393;SDS011;10356;50.544;9.642;2024-02-21T12:00:56;7.80;;;2.90;;
20393;SDS011;10356;50.544;9.642;2024-02-21T12:03:24;8.40;;;2.88;;
20393;SDS011;10356;50.544;9.642;2024-02-21T12:05:52;7.53;;;2.97;;
20393;SDS011;10356;50.544;9.642;2024-02-21T12:08:21;10.10;;;3.05;;
20393;SDS011;10356;50.544;9.642;2024-02-21T12:10:48;9.45;;;3.03;;
20393;SDS011;10356;50.544;9.642;2024-02-21T12:13:16;11.07;;;3.10;;
20393;SDS011;10356;50.544;9.642;2024-02-21T12:15:47;5.50;;;2.78;;
20393;SDS011;10356;50.544;9.642;2024-02-21T12:18:13;6.97;;;2.63;;
20393;SDS011;10356;50.544;9.642;2024-02-21T12:20:42;10.05;;;2.95;;
20393;SDS011;10356;50.544;9.642;2024-02-21T12:23:09;7.85;;;2.97;;
20393;SDS011;10356;50.544;9.642;2024-02-21T12:25:36;8.77;;;3.20;;
20393;SDS011;10356;50.544;9.642;2024-02-21T12:28:04;7.88;;;2.80;;
20393;SDS011;10356;50.544;9.642;2024-02-21T12:30:32;8.30;;;2.92;;
20393;SDS011;10356;50.544;9.642;2024-02-21T12:33:00;9.05;;;2.72;;
20393;SDS011;10356;50.544;9.642;2024-02-21T12:35:27;8.73;;;2.70;;
20393;SDS011;10356;50.544;9.642;2024-02-21T12:37:55;7.97;;;2.50;;
20393;SDS011;10356;50.544;9.642;2024-02-21T12:40:21;10.77;;;3.00;;
20393;SDS011;10356;50.544;9.642;2024-02-21T12:42:48;9.52;;;2.75;;
20393;SDS011;10356;50.544;9.642;2024-02-21T12:45:14;6.80;;;2.58;;
20393;SDS011;10356;50.544;9.642;2024-02-21T12:47:41;8.55;;;2.83;;
20393;SDS011;10356;50.544;9.642;2024-02-21T12:50:08;8.68;;;2.42;;
20393;SDS011;10356;50.544;9.642;2024-02-21T12:52:35;6.25;;;2.53;;
20393;SDS011;10356;50.544;9.642;2024-02-21T12:55:03;6.30;;;2.50;;
20393;SDS011;10356;50.544;9.642;2024-02-21T12:57:30;8.02;;;2.88;;
20393;SDS011;10356;50.544;9.642;2024-02-21T12:59:57;8.82;;;2.33;;
20393;SDS011;10356;50.544;9.642;2024-02-21T13:02:23;6.93;;;2.65;;
20393;SDS011;10356;50.544;9.642;2024-02-21T13:04:50;8.73;;;2.50;;
20393;SDS011;10356;50.544;9.642;2024-02-21T13:07:16;9.45;;;3.03;;
20393;SDS011;10356;50.544;9.642;2024-02-21T13:09:43;7.50;;;2.85;;
20393;SDS011;10356;50.544;9.642;2024-02-21T13:12:11;8.45;;;2.70;;
20393;SDS011;10356;50.544;9.642;2024-02-21T13:14:38;11.63;;;3.03;;
20393;SDS011;10356;50.544;9.642;2024-02-21T13:17:04;7.50;;;2.92;;
20393;SDS011;10356;50.544;9.642;2024-02-21T13:19:32;6.50;;;2.38;;
20393;SDS011;10356;50.544;9.642;2024-02-21T13:21:58;6.27;;;2.57;;
20393;SDS011;10356;50.544;9.642;2024-02-21T13:24:25;11.17;;;2.83;;
20393;SDS011;10356;50.544;9.642;2024-02-21T13:26:51;10.95;;;2.97;;
20393;SDS011;10356;50.544;9.642;2024-02-21T13:29:19;10.43;;;3.17;;
20393;SDS011;10356;50.544;9.642;2024-02-21T13:31:46;7.78;;;2.65;;
20393;SDS011;10356;50.544;9.642;2024-02-21T13:34:12;9.75;;;2.80;;
20393;SDS011;10356;50.544;9.642;2024-02-21T13:36:39;10.50;;;3.70;;
20393;SDS011;10356;50.544;9.642;2024-02-21T13:39:05;11.75;;;3.30;;
20393;SDS011;10356;50.544;9.642;2024-02-21T13:41:33;8.47;;;2.80;;
20393;SDS011;10356;50.544;9.642;2024-02-21T13:44:00;6.07;;;2.70;;
20393;SDS011;10356;50.544;9.642;2024-02-21T13:46:26;11.27;;;3.33;;
20393;SDS011;10356;50.544;9.642;2024-02-21T13:48:54;10.03;;;3.33;;
20393;SDS011;10356;50.544;9.642;2024-02-21T13:51:29;8.33;;;3.37;;
20393;SDS011;10356;50.544;9.642;2024-02-21T13:53:56;9.87;;;2.80;;
20393;SDS011;10356;50.544;9.642;2024-02-21T13:56:22;7.03;;;3.15;;
20393;SDS011;10356;50.544;9.642;2024-02-21T13:58:49;10.47;;;2.87;;
20393;SDS011;10356;50.544;9.642;2024-02-21T14:01:16;9.57;;;3.20;;
20393;SDS011;10356;50.544;9.642;2024-02-21T14:03:44;9.77;;;3.10;;
20393;SDS011;10356;50.544;9.642;2024-02-21T14:06:11;9.57;;;3.13;;
20393;SDS011;10356;50.544;9.642;2024-02-21T14:08:37;11.57;;;2.78;;
20393;SDS011;10356;50.544;9.642;2024-02-21T14:11:04;8.17;;;2.53;;
20393;SDS011;10356;50.544;9.642;2024-02-21T14:13:31;12.10;;;2.90;;
20393;SDS011;10356;50.544;9.642;2024-02-21T14:15:58;7.80;;;3.27;;
20393;SDS011;10356;50.544;9.642;2024-02-21T14:18:24;8.57;;;2.70;;
20393;SDS011;10356;50.544;9.642;2024-02-21T14:20:52;7.17;;;2.57;;
20393;SDS011;10356;50.544;9.642;2024-02-21T14:23:18;7.83;;;2.77;;
20393;SDS011;10356;50.544;9.642;2024-02-21T14:25:46;11.10;;;2.73;;
20393;SDS011;10356;50.544;9.642;2024-02-21T14:28:12;6.57;;;2.75;;
20393;SDS011;10356;50.544;9.642;2024-02-21T14:30:39;9.67;;;3.10;;
20393;SDS011;10356;50.544;9.642;2024-02-21T14:33:05;10.43;;;3.83;;
20393;SDS011;10356;50.544;9.642;2024-02-21T14:35:32;9.13;;;3.70;;